• Join FlightAware (Why Join?)
  • Login
  • US Flag 
01:32PM EDT


 

Airport Tracker/Info


-or-


 

Live Flight TrackerFlight Track Log ✈ UAL623 ✈ 11-May-2013 ✈ KORD - KLAX

Flight Track Log - Related Links

Times and Time Zones

All times are in EDT time to prevent confusion due to time zone crossing. See the UAL623 flight status page for this flight to view local times or setup timezone preferences in your user account.

Time Position Orientation Groundspeed Altitude Reporting Facility
EDT Latitude Longitude Course Direction KTS MPH feet Rate Location/Type
07:53PM 42.0000 -87.9500 253° West 161 185 2,400  Level Chicago TRACON
07:54PM 41.9833 -88.0333 255° West 210 242 4,500 2,280 Climbing Chicago TRACON
07:55PM 41.8737 -88.3408 242° Southwest  Level FlightAware Approximate
07:56PM 41.8330 -88.4848 254° West  Level FlightAware Approximate
07:56PM 41.9808 -88.1422 268° West 224 258 8,000  Level Chicago Center
07:57PM 41.8002 -88.6333 254° West  Level FlightAware Approximate
07:57PM 41.9739 -88.2578 265° West 256 295 11,300  Level Chicago Center
07:58PM 41.7673 -88.7817 253° West  Level FlightAware Approximate
07:58PM 41.9606 -88.3708 261° West 304 350 13,200  Level Chicago Center
07:59PM 41.9444 -88.4875 260° West 319 367 16,100 2,700 Climbing Chicago Center
08:00PM 41.9294 -88.6019 260° West 317 365 18,800 2,280 Climbing Chicago Center
08:01PM 41.9142 -88.7181 260° West 318 366 20,800 1,800 Climbing Chicago Center
08:02PM 41.8983 -88.8378 260° West 327 376 22,500 1,500 Climbing Chicago Center
08:03PM 41.8858 -88.9644 262° West 342 394 23,900 1,800 Climbing Chicago Center
08:04PM 41.8597 -89.1225 258° West 365 420 26,200 1,860 Climbing Chicago Center
08:05PM 41.8378 -89.2539 257° West 365 420 27,800 1,380 Climbing Chicago Center
08:06PM 41.8136 -89.3856 256° West 367 422 29,100 1,200 Climbing Chicago Center
08:07PM 41.7878 -89.5239 256° West 379 436 30,300 960 Climbing Chicago Center
08:08PM 41.7639 -89.6569 257° West 384 442 31,100 1,020 Climbing Chicago Center
08:09PM 41.7383 -89.7997 257° West 393 452 32,500 1,200 Climbing Chicago Center
08:10PM 41.7128 -89.9414 256° West 394 453 33,600 1,140 Climbing Chicago Center
08:11PM 41.6797 -90.1122 256° West 397 457 34,900 960 Climbing Chicago Center
08:12PM 41.6531 -90.2558 256° West 400 460 35,600 480 Climbing Chicago Center
08:13PM 41.6250 -90.4058 256° West 412 474 36,000 180 Climbing Chicago Center
08:14PM 41.5978 -90.5483 256° West 406 467 36,000  Level Chicago Center
08:15PM 41.5692 -90.6922 255° West 399 459 36,000  Level Chicago Center
08:16PM 41.5419 -90.8350 256° West 399 459 36,000  Level Chicago Center
08:17PM 41.5139 -90.9750 255° West 398 458 36,000  Level Chicago Center
08:18PM 41.4861 -91.1169 255° West 398 458 36,000  Level Chicago Center
08:19PM 41.4578 -91.2614 255° West 401 461 36,000  Level Chicago Center
08:20PM 41.4289 -91.4047 255° West 401 461 36,000  Level Chicago Center
08:21PM 41.3944 -91.5783 255° West 404 465 36,000  Level Chicago Center
08:22PM 41.3653 -91.7219 255° West 405 466 36,000  Level Chicago Center
08:23PM 41.3353 -91.8653 254° West 405 466 36,000  Level Chicago Center
08:24PM 41.3053 -92.0094 255° West 407 468 36,000  Level Chicago Center
08:25PM 41.2750 -92.1544 255° West 408 470 36,000  Level Chicago Center
08:26PM 41.2447 -92.3000 255° West 409 471 36,000  Level Chicago Center
08:27PM 41.2100 -92.4658 254° West 411 473 36,000  Level Chicago Center
08:28PM 41.1794 -92.6111 254° West 413 475 36,000  Level Chicago Center
08:29PM 41.1544 -92.7278 254° West 414 476 36,000  Level Minneapolis Center
08:30PM 41.1231 -92.8733 254° West 413 475 36,000  Level Minneapolis Center
08:31PM 41.0917 -93.0175 254° West 414 476 36,000  Level Minneapolis Center
08:32PM 41.0533 -93.1914 254° West 415 478 36,000  Level Minneapolis Center
08:33PM 41.0219 -93.3347 254° West 413 475 36,000  Level Minneapolis Center
08:34PM 40.9903 -93.4803 254° West 415 478 36,000  Level Minneapolis Center
08:35PM 40.9572 -93.6272 253° West 419 482 36,000  Level Minneapolis Center
08:36PM 40.9239 -93.7731 253° West 420 483 36,000  Level Minneapolis Center
08:37PM 40.8922 -93.9186 254° West 419 482 36,000  Level Minneapolis Center
08:38PM 40.8517 -94.0956 253° West 421 484 36,000  Level Minneapolis Center
08:39PM 40.8178 -94.2419 253° West 421 484 36,000  Level Minneapolis Center
08:40PM 40.7822 -94.3892 252° West 423 487 36,000  Level Minneapolis Center
08:41PM 40.7489 -94.5361 253° West 423 487 36,000  Level Minneapolis Center
08:42PM 40.7103 -94.7014 253° West 422 486 36,000  Level Minneapolis Center
08:43PM 40.6764 -94.8497 253° West 422 486 36,000  Level Minneapolis Center
08:44PM 40.6414 -94.9978 253° West 422 486 36,000  Level Minneapolis Center
08:45PM 40.6058 -95.1461 253° West 422 486 36,000  Level Minneapolis Center
08:46PM 40.5711 -95.2919 253° West 419 482 36,000  Level Minneapolis Center
08:47PM 40.5356 -95.4408 253° West 421 484 36,000  Level Minneapolis Center
08:48PM 40.5000 -95.5883 252° West 422 486 36,000  Level Minneapolis Center
08:49PM 40.4650 -95.7339 253° West 420 483 36,000  Level Minneapolis Center
08:51PM 40.4281 -95.8808 252° West 420 483 36,000  Level Minneapolis Center
08:52PM 40.3919 -96.0303 252° West 424 488 36,000  Level Minneapolis Center
08:53PM 40.3550 -96.1806 252° West 425 489 36,000  Level Minneapolis Center
08:54PM 40.3183 -96.3272 252° West 426 490 36,000  Level Minneapolis Center
08:55PM 40.2661 -96.5331 252° West 425 489 36,000  Level Minneapolis Center
08:56PM 40.2281 -96.6817 252° West 426 490 36,000  Level Minneapolis Center
08:57PM 40.1892 -96.8308 251° West 430 495 36,000  Level Minneapolis Center
08:58PM 40.1517 -96.9811 252° West 431 496 36,000  Level Minneapolis Center
08:59PM 40.1144 -97.1306 252° West 432 497 36,000  Level Minneapolis Center
09:00PM 40.0747 -97.2797 251° West 433 498 36,000  Level Minneapolis Center
09:01PM 40.0350 -97.4286 251° West 434 499 36,000  Level Minneapolis Center
09:02PM 39.9967 -97.5778 251° West 433 498 36,000  Level Minneapolis Center
09:03PM 39.9478 -97.7564 250° West 433 498 36,000  Level Minneapolis Center
09:04PM 39.9003 -97.9369 251° West 435 501 36,000  Level Minneapolis Center
09:05PM 39.8614 -98.0844 251° West 434 499 36,000  Level Minneapolis Center
09:06PM 39.8208 -98.2325 250° West 433 498 36,000  Level Minneapolis Center
09:07PM 39.7800 -98.3800 250° West 432 497 36,000  Level Minneapolis Center
09:08PM 39.7414 -98.5281 251° West 432 497 36,000  Level Minneapolis Center
09:09PM 39.6994 -98.6756 250° West 433 498 36,000  Level Minneapolis Center
09:10PM 39.6586 -98.8231 250° West 433 498 36,000  Level Minneapolis Center
09:11PM 39.6422 -98.8819 250° West 433 498 36,000  Level Denver Center
09:12PM 39.5931 -99.0592 250° West 434 499 36,000  Level Denver Center
09:13PM 39.5503 -99.2067 249° West 436 502 36,000  Level Denver Center
09:14PM 39.5008 -99.3850 250° West 437 503 36,000  Level Denver Center
09:15PM 39.4583 -99.5336 250° West 436 502 36,000  Level Denver Center
09:16PM 39.4178 -99.6756 250° West 439 505 36,000  Level Denver Center
09:17PM 39.3703 -99.8389 249° West 435 501 36,000  Level Denver Center
09:18PM 39.3303 -99.9814 250° West 439 505 36,000  Level Denver Center
09:19PM 39.2894 -100.1222 250° West 438 504 36,000  Level Denver Center
09:20PM 39.2411 -100.2850 249° West 437 503 36,000  Level Denver Center
09:21PM 39.1975 -100.4256 248° West 439 505 36,000  Level Denver Center
09:22PM 39.1539 -100.5647 248° West 438 504 36,000  Level Denver Center
09:23PM 39.1022 -100.7278 248° West 438 504 36,000  Level Denver Center
09:24PM 39.0583 -100.8650 248° West 435 501 36,000  Level Denver Center
09:25PM 39.0131 -101.0122 248° West 444 511 36,000  Level Denver Center
09:26PM 38.9611 -101.1725 247° West 438 504 36,000  Level Denver Center
09:27PM 38.9167 -101.3100 247° West 437 503 36,000  Level Denver Center
09:28PM 38.8650 -101.4711 248° West 437 503 36,000  Level Denver Center
09:29PM 38.8208 -101.6083 248° West 437 503 36,000  Level Denver Center
09:30PM 38.7758 -101.7453 247° West 438 504 36,000  Level Denver Center
09:31PM 38.7233 -101.9064 247° West 441 507 36,000  Level Denver Center
09:33PM 38.6775 -102.0442 247° West 441 507 36,000  Level Denver Center
09:34PM 38.6242 -102.2050 247° West 441 507 36,000  Level Denver Center
09:35PM 38.5861 -102.3211 247° West 443 510 36,000 180 Level Denver Center
09:36PM 38.5250 -102.5058 247° West 443 510 36,400 480 Climbing Denver Center
09:37PM 38.4769 -102.6450 246° West 447 514 37,000 540 Climbing Denver Center
09:38PM 38.4331 -102.7822 248° West 441 507 37,600 480 Climbing Denver Center
09:39PM 38.3964 -102.9444 254° West 428 493 38,000 180 Climbing Denver Center
09:40PM 38.3694 -103.0850 256° West 429 494 38,000  Level Denver Center
09:41PM 38.3361 -103.2478 255° West 427 491 38,000  Level Denver Center
09:42PM 38.3044 -103.3928 254° West 428 493 38,000  Level Denver Center
09:43PM 38.2744 -103.5331 255° West 430 495 38,000  Level Denver Center
09:44PM 38.2400 -103.6978 255° West 433 498 38,000  Level Denver Center
09:45PM 38.2089 -103.8394 254° West 435 501 38,000  Level Denver Center
09:46PM 38.1786 -103.9803 255° West 434 499 38,000  Level Denver Center
09:47PM 38.1408 -104.1450 254° West 437 503 38,000  Level Denver Center
09:48PM 38.1100 -104.2856 254° West 435 501 38,000  Level Denver Center
09:49PM 38.0739 -104.4494 254° West 435 501 38,000  Level Denver Center
09:50PM 38.0433 -104.5892 255° West 432 497 38,000  Level Denver Center
09:51PM 38.0075 -104.7536 255° West 434 499 38,000  Level Denver Center
09:52PM 37.9756 -104.8939 254° West 435 501 38,000  Level Denver Center
09:53PM 37.9439 -105.0347 254° West 435 501 38,000  Level Denver Center
09:54PM 37.9056 -105.1983 254° West 435 501 38,000  Level Denver Center
09:55PM 37.8722 -105.3386 253° West 435 501 38,000  Level Denver Center
09:56PM 37.8344 -105.5044 254° West 439 505 38,000  Level Denver Center
09:57PM 37.8011 -105.6456 253° West 439 505 38,000  Level Denver Center
09:58PM 37.7683 -105.7883 254° West 442 509 38,000  Level Denver Center
09:59PM 37.7267 -105.9556 253° West 448 516 38,000  Level Denver Center
10:00PM 37.6939 -106.0994 254° West 447 514 38,000  Level Denver Center
10:01PM 37.6539 -106.2622 253° West 446 513 38,000  Level Denver Center
10:02PM 37.6181 -106.4092 253° West 457 526 38,000  Level Denver Center
10:03PM 37.5772 -106.5775 253° West 453 521 38,000  Level Denver Center
10:04PM 37.5411 -106.7239 253° West 455 524 38,000  Level Denver Center
10:05PM 37.5056 -106.8708 253° West 458 527 38,000  Level Denver Center
10:06PM 37.4625 -107.0400 252° West 455 524 38,000  Level Denver Center
10:07PM 37.4267 -107.1856 253° West 456 525 38,000  Level Denver Center
10:08PM 37.3900 -107.3306 252° West 457 526 38,000  Level Denver Center
10:10PM 37.3414 -107.5228 252° West 455 524 38,000  Level Denver Center
10:11PM 37.3042 -107.6669 252° West 454 522 38,000  Level Denver Center
10:12PM 37.2828 -107.8381 261° West 444 511 38,000  Level Denver Center
10:13PM 37.3286 -107.9736 293° West 445 512 38,000  Level Denver Center
10:14PM 37.3878 -108.1244 296° West 435 501 38,000  Level Denver Center
10:15PM 37.4386 -108.2569 296° West 437 503 38,000  Level Denver Center
10:16PM 37.5083 -108.4325 297° West 440 506 38,000  Level Denver Center
10:17PM 37.5514 -108.5686 292° West 439 505 38,000  Level Denver Center
10:18PM 37.5264 -108.7228 258° West 482 555 38,000  Level Denver Center
10:19PM 37.4636 -108.8858 244° Southwest 472 543 38,000  Level Denver Center
10:20PM 37.4100 -109.0319 245° Southwest 480 552 38,000  Level Denver Center
10:21PM 37.3472 -109.2022 245° Southwest 481 554 38,000  Level Denver Center
10:22PM 37.2942 -109.3456 245° Southwest 477 549 38,000  Level Denver Center
10:23PM 37.2411 -109.4900 245° Southwest 477 549 38,000  Level Denver Center
10:24PM 37.1750 -109.6633 244° Southwest 489 563 38,000  Level Denver Center
10:25PM 37.1222 -109.8053 245° Southwest 480 552 38,000  Level Denver Center
10:26PM 37.0700 -109.9442 245° Southwest 468 539 38,000  Level Denver Center
10:27PM 37.0056 -110.1128 244° Southwest 477 549 38,000  Level Denver Center
10:28PM 36.9469 -110.2644 244° Southwest 475 547 38,000  Level Denver Center
10:29PM 36.8900 -110.4119 244° Southwest 472 543 38,000  Level Denver Center
10:30PM 36.8331 -110.5608 244° Southwest 474 545 38,000  Level Denver Center
10:31PM 36.7747 -110.7092 244° Southwest 478 550 38,000  Level Denver Center
10:32PM 36.7181 -110.8572 245° Southwest 475 547 38,000  Level Denver Center
10:33PM 36.6614 -111.0039 244° Southwest 472 543 38,000  Level Denver Center
10:34PM 36.6033 -111.1533 244° Southwest 475 547 38,000  Level Denver Center
10:35PM 36.5433 -111.3017 243° Southwest 478 550 38,000  Level Denver Center
10:36PM 36.4725 -111.4789 244° Southwest 477 549 38,000  Level Denver Center
10:37PM 36.4122 -111.6278 243° Southwest 479 551 38,000  Level Denver Center
10:38PM 36.3547 -111.7758 244° Southwest 479 551 38,000  Level Denver Center
10:39PM 36.2942 -111.9228 243° Southwest 477 549 38,000  Level Denver Center
10:40PM 36.2353 -112.0708 244° Southwest 478 550 38,000  Level Denver Center
10:41PM 36.1633 -112.2486 243° Southwest 480 552 38,000  Level Denver Center
10:43PM 36.0928 -112.4222 243° Southwest 472 543 38,000  Level Los Angeles Center
10:44PM 36.0314 -112.5694 243° Southwest 477 549 38,000  Level Los Angeles Center
10:45PM 35.9708 -112.7164 243° Southwest 480 552 38,000  Level Los Angeles Center
10:46PM 35.9186 -112.8431 243° Southwest 486 559 38,000  Level Los Angeles Center
10:47PM 35.8467 -113.0172 243° Southwest 483 556 38,000  Level Los Angeles Center
10:48PM 35.7856 -113.1603 242° Southwest 482 555 38,000  Level Los Angeles Center
10:49PM 35.7253 -113.3064 243° Southwest 484 557 38,000  Level Los Angeles Center
10:50PM 35.6644 -113.4514 243° Southwest 483 556 38,000  Level Los Angeles Center
10:51PM 35.6153 -113.5661 242° Southwest 482 555 38,000  Level Los Angeles Center
10:52PM 35.5450 -113.7408 244° Southwest 481 554 38,000  Level Los Angeles Center
10:53PM 35.4733 -113.9153 243° Southwest 482 555 38,000  Level Los Angeles Center
10:54PM 35.4164 -114.0531 243° Southwest 481 554 38,000  Level Los Angeles Center
10:55PM 35.3561 -114.1994 243° Southwest 480 552 38,000  Level Los Angeles Center
10:56PM 35.2983 -114.3439 244° Southwest 472 543 38,000  Level Los Angeles Center
10:57PM 35.2381 -114.4914 243° Southwest 477 549 38,000  Level Los Angeles Center
10:58PM 35.1761 -114.6361 242° Southwest 478 550 38,000  Level Los Angeles Center
10:59PM 35.1153 -114.7803 243° Southwest 477 549 38,000  Level Los Angeles Center
11:00PM 35.0558 -114.9247 243° Southwest 476 548 38,000  Level Los Angeles Center
11:01PM 34.9842 -115.0986 243° Southwest 477 549 38,000  Level Los Angeles Center
11:02PM 34.9236 -115.2414 243° Southwest 475 547 38,000 -60 Level Los Angeles Center
11:03PM 34.8622 -115.3850 243° Southwest 476 548 37,900 -780 Descending Los Angeles Center
11:04PM 34.8022 -115.5286 243° Southwest 477 549 36,500 -1,320 Descending Los Angeles Center
11:05PM 34.7375 -115.6789 242° Southwest 483 556 35,200 -1,260 Descending Los Angeles Center
11:06PM 34.6753 -115.8233 242° Southwest 483 556 34,000 -1,080 Descending Los Angeles Center
11:07PM 34.6131 -115.9672 242° Southwest 482 555 33,100 -1,020 Descending Los Angeles Center
11:08PM 34.5522 -116.1058 242° Southwest 468 539 32,000 -1,620 Descending Los Angeles Center
11:09PM 34.4936 -116.2389 242° Southwest 450 518 29,900 -2,040 Descending Los Angeles Center
11:10PM 34.4339 -116.3747 242° Southwest 455 524 27,900 -1,440 Descending Los Angeles Center
11:11PM 34.3742 -116.5114 242° Southwest 458 527 27,000 -1,500 Descending Los Angeles Center
11:12PM 34.3139 -116.6478 242° Southwest 460 529 24,900 -1,980 Descending Los Angeles Center
11:13PM 34.2539 -116.7822 242° Southwest 455 524 23,000 -2,040 Descending Los Angeles Center
11:14PM 34.1967 -116.9097 242° Southwest 437 503 20,800 -2,100 Descending Los Angeles Center
11:15PM 34.1433 -117.0308 242° Southwest 415 478 18,800 -1,920 Descending Los Angeles Center
11:16PM 34.1000 -117.1167 239° Southwest 393 452 17,700 -1,920 Descending Southern California TRACON
11:17PM 34.0500 -117.2333 243° Southwest 385 443 15,700 -1,800 Descending Southern California TRACON
11:18PM 34.0333 -117.3500 260° West 326 375 14,200 -1,800 Descending Southern California TRACON
11:19PM 34.0333 -117.4500 270° West 311 358 12,100 -1,680 Descending Southern California TRACON
11:20PM 34.0167 -117.5667 260° West 325 374 10,700 -1,020 Descending Southern California TRACON
11:21PM 34.0000 -117.6667 259° West 313 360 10,000 -780 Descending Southern California TRACON
11:22PM 34.0000 -117.7667 270° West 294 338 9,200 -1,200 Descending Southern California TRACON
11:23PM 33.9833 -117.8667 259° West 293 337 7,700 -1,320 Descending Southern California TRACON
11:24PM 33.9833 -117.9500 270° West 258 297 6,600 -1,140 Descending Southern California TRACON
11:25PM 33.9667 -118.0500 259° West 244 281 5,400 -1,140 Descending Southern California TRACON
11:26PM 33.9667 -118.1167 270° West 233 268 4,300 -1,140 Descending Southern California TRACON
11:26PM 33.9611 -118.1475 258° West 237 273 3,900 -1,080 Descending Los Angeles Center